Time;durP1;ratioP1;P1;durP2;ratioP2;P2;SDS_P1;SDS_P2;PMS_P1;PMS_P2;Temp;Humidity;BMP_temperature;BMP_pressure;BME280_temperature;BME280_humidity;BME280_pressure;Samples;Min_cycle;Max_cycle;Signal;HPM_P1;HPM_P2
2021/07/13 00:00:27;;;;;;;9.70;9.20;;;24.30;98.10;;;;;;3526161;40;20456;-62
2021/07/13 00:02:55;;;;;;;10.87;10.27;;;24.30;98.20;;;;;;3526110;40;20480;-62
2021/07/13 00:05:24;;;;;;;10.00;9.50;;;24.30;98.20;;;;;;3526097;40;20475;-62
2021/07/13 00:07:53;;;;;;;10.63;10.03;;;24.20;98.20;;;;;;3525969;40;20478;-62
2021/07/13 00:10:27;;;;;;;10.10;9.60;;;24.20;98.20;;;;;;3526495;40;20673;-62
2021/07/13 00:12:55;;;;;;;10.40;9.87;;;24.30;98.30;;;;;;3526310;40;20467;-62
2021/07/13 00:15:24;;;;;;;11.23;10.53;;;24.20;98.20;;;;;;3526981;40;20476;-63
2021/07/13 00:17:55;;;;;;;10.40;9.90;;;24.20;98.30;;;;;;3526766;40;20444;-62
2021/07/13 00:20:23;;;;;;;10.10;9.60;;;24.20;98.30;;;;;;3526484;40;20507;-62
2021/07/13 00:22:52;;;;;;;10.70;10.20;;;24.20;98.30;;;;;;3525822;40;20487;-63
2021/07/13 00:25:23;;;;;;;9.87;9.37;;;24.20;98.30;;;;;;3525812;40;20464;-62
2021/07/13 00:27:55;;;;;;;10.80;10.10;;;24.20;98.30;;;;;;3526875;40;20462;-62
2021/07/13 00:30:24;;;;;;;10.30;9.70;;;24.20;98.30;;;;;;3527057;40;20463;-62
2021/07/13 00:32:54;;;;;;;10.60;9.87;;;24.20;98.30;;;;;;3526790;40;20498;-62
2021/07/13 00:35:24;;;;;;;11.73;10.77;;;24.30;98.40;;;;;;3526655;40;20504;-62
2021/07/13 00:37:52;;;;;;;11.13;10.53;;;24.20;98.40;;;;;;3526587;40;20478;-62
2021/07/13 00:40:23;;;;;;;10.63;10.03;;;24.20;98.40;;;;;;3526857;40;20451;-62
2021/07/13 00:42:54;;;;;;;10.47;9.83;;;24.20;98.40;;;;;;3526784;40;21086;-62
2021/07/13 00:45:23;;;;;;;10.43;9.77;;;24.20;98.50;;;;;;3526879;40;20464;-63
2021/07/13 00:47:53;;;;;;;11.17;10.53;;;24.20;98.40;;;;;;3526000;40;20475;-62
2021/07/13 00:50:23;;;;;;;10.60;10.00;;;24.20;98.80;;;;;;3527383;40;20464;-62
2021/07/13 00:52:53;;;;;;;10.10;9.60;;;24.20;98.50;;;;;;3527335;40;20725;-62
2021/07/13 00:55:24;;;;;;;9.90;9.40;;;24.20;98.40;;;;;;3527261;40;20474;-62
2021/07/13 00:57:56;;;;;;;10.23;9.63;;;24.20;98.50;;;;;;3526142;40;20463;-62
2021/07/13 01:00:25;;;;;;;10.30;9.80;;;24.20;98.60;;;;;;3527358;40;20511;-62
2021/07/13 01:02:56;;;;;;;11.20;10.60;;;24.20;98.60;;;;;;3526490;40;20483;-62
2021/07/13 01:05:26;;;;;;;10.63;10.03;;;24.20;98.60;;;;;;3526801;40;20459;-62
2021/07/13 01:08:05;;;;;;;9.70;9.20;;;24.20;98.60;;;;;;3526616;40;20460;-62
2021/07/13 01:10:45;;;;;;;10.97;10.27;;;24.20;98.60;;;;;;3526631;40;20555;-62
2021/07/13 01:13:27;;;;;;;11.03;10.43;;;24.20;98.60;;;;;;3525117;40;20519;-62
2021/07/13 01:16:01;;;;;;;11.13;10.33;;;24.20;98.70;;;;;;3526799;40;20451;-62
2021/07/13 01:18:32;;;;;;;11.37;10.67;;;24.20;98.70;;;;;;3526283;40;20464;-62
2021/07/13 01:21:30;;;;;;;11.10;10.50;;;24.20;98.70;;;;;;3526397;40;20455;-63
2021/07/13 01:24:30;;;;;;;10.97;10.37;;;24.20;98.70;;;;;;3520866;40;20507;-62
2021/07/13 01:27:17;;;;;;;10.80;10.10;;;24.20;98.80;;;;;;3526258;40;20513;-62
2021/07/13 01:29:49;;;;;;;10.53;9.93;;;24.20;98.80;;;;;;3525581;40;20490;-62
2021/07/13 01:32:22;;;;;;;10.97;10.37;;;24.20;98.80;;;;;;3526651;40;20842;-62
2021/07/13 01:35:00;;;;;;;11.73;10.93;;;24.20;98.80;;;;;;3526793;40;20467;-62
2021/07/13 01:37:30;;;;;;;11.27;10.57;;;24.20;98.80;;;;;;3526263;40;20930;-62
2021/07/13 01:40:01;;;;;;;10.67;10.13;;;24.20;98.80;;;;;;3525323;40;20885;-62
2021/07/13 01:42:39;;;;;;;11.57;10.87;;;24.20;98.80;;;;;;3526169;40;20486;-62
2021/07/13 01:45:13;;;;;;;11.13;10.23;;;24.20;98.80;;;;;;3532883;40;20456;-62
2021/07/13 01:47:41;;;;;;;10.33;9.70;;;24.20;98.80;;;;;;3525716;40;20472;-62
2021/07/13 01:50:12;;;;;;;11.23;10.53;;;24.20;98.80;;;;;;3526130;40;20462;-62
2021/07/13 01:52:41;;;;;;;11.00;10.40;;;24.20;98.80;;;;;;3526184;40;20447;-62
2021/07/13 01:55:13;;;;;;;11.40;10.70;;;24.20;98.90;;;;;;3525968;40;20464;-62
2021/07/13 01:57:42;;;;;;;11.80;11.00;;;24.20;99.20;;;;;;3525609;40;20467;-62
2021/07/13 02:00:12;;;;;;;12.07;11.33;;;24.20;98.90;;;;;;3526263;40;20460;-62
2021/07/13 02:02:42;;;;;;;12.17;11.17;;;24.20;98.90;;;;;;3526933;40;20487;-62
2021/07/13 02:05:13;;;;;;;11.47;10.80;;;24.20;98.90;;;;;;3526525;40;20456;-62
2021/07/13 02:07:49;;;;;;;11.87;11.00;;;24.20;98.90;;;;;;3526072;40;20829;-62
2021/07/13 02:10:22;;;;;;;13.00;12.20;;;24.20;99.00;;;;;;3525550;40;20455;-63
2021/07/13 02:12:49;;;;;;;11.80;11.20;;;24.20;99.00;;;;;;3525589;40;20467;-62
2021/07/13 02:15:19;;;;;;;12.40;11.60;;;24.20;99.00;;;;;;3526334;40;20495;-62
2021/07/13 02:17:53;;;;;;;11.67;11.00;;;24.20;99.00;;;;;;3517378;40;20452;-62
2021/07/13 02:20:22;;;;;;;12.40;11.70;;;24.20;99.00;;;;;;3526969;40;20447;-62
2021/07/13 02:22:50;;;;;;;11.97;11.27;;;24.20;99.00;;;;;;3526451;40;20887;-62
2021/07/13 02:25:18;;;;;;;12.93;12.23;;;24.20;98.90;;;;;;3525801;40;20483;-62
2021/07/13 02:27:53;;;;;;;12.50;11.80;;;24.20;99.00;;;;;;3525110;40;20459;-62
2021/07/13 02:30:23;;;;;;;13.17;12.30;;;24.20;99.00;;;;;;3525781;40;20468;-62
2021/07/13 02:32:58;;;;;;;12.17;11.37;;;24.20;99.00;;;;;;3526386;40;20725;-62
2021/07/13 02:35:35;;;;;;;12.53;11.63;;;24.20;99.00;;;;;;3524927;40;20459;-62
2021/07/13 02:38:08;;;;;;;12.13;11.53;;;24.20;99.10;;;;;;3525252;40;20899;-62
2021/07/13 02:40:39;;;;;;;12.20;11.50;;;24.20;99.10;;;;;;3527416;40;20483;-63
2021/07/13 02:43:08;;;;;;;12.20;11.50;;;24.20;99.10;;;;;;3528004;40;20682;-62
2021/07/13 02:45:38;;;;;;;12.77;12.07;;;24.20;99.10;;;;;;3527884;40;20451;-62
2021/07/13 02:48:07;;;;;;;11.70;11.03;;;24.20;99.10;;;;;;3518742;40;20982;-62
2021/07/13 02:50:38;;;;;;;11.60;10.93;;;24.20;99.10;;;;;;3527451;40;20520;-62
2021/07/13 02:53:09;;;;;;;12.03;11.40;;;24.20;99.20;;;;;;3527388;40;20463;-62
2021/07/13 02:55:40;;;;;;;12.97;12.30;;;24.20;99.20;;;;;;3527270;40;20475;-62
2021/07/13 02:58:10;;;;;;;11.80;11.20;;;24.20;99.20;;;;;;3526310;40;20494;-62
2021/07/13 03:00:44;;;;;;;11.80;11.20;;;24.20;99.20;;;;;;3518746;40;20480;-62
2021/07/13 03:03:14;;;;;;;11.83;11.13;;;24.20;99.20;;;;;;3527810;40;20686;-62
2021/07/13 03:05:43;;;;;;;11.40;10.80;;;24.20;99.20;;;;;;3527224;40;20466;-62
2021/07/13 03:08:14;;;;;;;11.33;10.73;;;24.20;99.20;;;;;;3526780;40;20451;-62
2021/07/13 03:10:42;;;;;;;11.27;10.67;;;24.20;99.20;;;;;;3526291;40;20462;-61
2021/07/13 03:13:09;;;;;;;11.03;10.43;;;24.20;99.20;;;;;;3517638;40;20460;-62
2021/07/13 03:15:40;;;;;;;11.63;10.93;;;24.20;99.20;;;;;;3526384;40;20466;-62
2021/07/13 03:18:10;;;;;;;10.73;10.23;;;24.20;99.20;;;;;;3526443;40;20580;-62
2021/07/13 03:20:41;;;;;;;11.27;10.67;;;24.20;99.20;;;;;;3527034;40;20475;-62
2021/07/13 03:23:11;;;;;;;12.20;11.50;;;24.20;99.20;;;;;;3517932;40;20510;-62
2021/07/13 03:25:42;;;;;;;11.93;11.33;;;24.20;99.20;;;;;;3537831;40;20696;-62
2021/07/13 03:28:13;;;;;;;12.40;11.60;;;24.20;99.20;;;;;;3536432;40;20477;-62
2021/07/13 03:30:45;;;;;;;12.50;11.70;;;24.20;99.20;;;;;;3537024;40;20462;-62
2021/07/13 03:33:15;;;;;;;12.90;12.13;;;24.20;99.30;;;;;;3535782;40;20461;-62
2021/07/13 03:35:43;;;;;;;12.77;12.07;;;24.20;99.30;;;;;;3536028;40;20522;-62
2021/07/13 03:38:12;;;;;;;12.87;12.27;;;24.20;99.30;;;;;;3536514;40;20458;-62
2021/07/13 03:40:40;;;;;;;11.87;11.27;;;24.20;99.30;;;;;;3535908;40;20474;-62
2021/07/13 03:43:09;;;;;;;12.90;12.20;;;24.20;99.30;;;;;;3527008;40;20553;-62
2021/07/13 03:45:37;;;;;;;11.80;11.20;;;24.20;99.30;;;;;;3535125;40;20471;-62
2021/07/13 03:48:12;;;;;;;12.87;12.10;;;24.20;99.30;;;;;;3533935;40;20455;-62
2021/07/13 03:50:40;;;;;;;13.90;12.90;;;24.20;99.30;;;;;;3536452;40;20462;-62
2021/07/13 03:53:08;;;;;;;12.60;11.90;;;24.20;99.30;;;;;;3536302;40;20893;-62
2021/07/13 03:55:39;;;;;;;12.87;12.07;;;24.20;99.30;;;;;;3535549;40;20902;-62
2021/07/13 03:58:08;;;;;;;12.57;11.77;;;24.20;99.30;;;;;;3534301;40;20462;-62
2021/07/13 04:00:36;;;;;;;10.70;10.00;;;24.20;99.30;;;;;;3534946;40;20447;-62
2021/07/13 04:03:08;;;;;;;11.80;11.10;;;24.20;99.30;;;;;;3534579;40;20541;-62
2021/07/13 04:05:38;;;;;;;12.80;12.10;;;24.20;99.30;;;;;;3534975;40;20923;-62
2021/07/13 04:08:07;;;;;;;12.63;11.50;;;24.20;99.30;;;;;;3534163;40;20447;-62
2021/07/13 04:10:34;;;;;;;12.00;11.40;;;24.20;99.30;;;;;;3533968;40;20939;-62
2021/07/13 04:13:04;;;;;;;11.27;10.70;;;24.20;99.30;;;;;;3532461;40;21018;-62
2021/07/13 04:15:34;;;;;;;12.57;11.77;;;24.20;99.40;;;;;;3525410;40;20447;-62
2021/07/13 04:18:04;;;;;;;11.87;11.27;;;24.20;99.40;;;;;;3516606;40;20464;-62
2021/07/13 04:20:35;;;;;;;12.13;11.43;;;24.20;99.30;;;;;;3525142;40;20471;-62
2021/07/13 04:23:05;;;;;;;12.37;11.77;;;24.20;99.30;;;;;;3515589;40;20487;-62
2021/07/13 04:25:32;;;;;;;12.03;11.27;;;24.20;99.40;;;;;;3513801;40;20476;-62
2021/07/13 04:27:59;;;;;;;11.90;11.23;;;24.20;99.40;;;;;;3523015;40;20471;-62
2021/07/13 04:30:30;;;;;;;11.73;11.13;;;24.20;99.40;;;;;;3524199;40;20470;-62
2021/07/13 04:32:58;;;;;;;11.50;11.00;;;24.20;99.30;;;;;;3524706;40;20787;-62
2021/07/13 04:35:25;;;;;;;11.80;11.20;;;24.20;99.30;;;;;;3523717;40;21085;-62
2021/07/13 04:37:54;;;;;;;11.70;11.07;;;24.20;99.40;;;;;;3524340;40;20467;-62
2021/07/13 04:40:24;;;;;;;12.97;12.17;;;24.20;99.40;;;;;;3533642;40;20466;-62
2021/07/13 04:42:52;;;;;;;12.47;11.67;;;24.20;99.40;;;;;;3533313;40;20474;-62
2021/07/13 04:45:23;;;;;;;11.93;11.33;;;24.20;99.50;;;;;;3531103;40;20493;-62
2021/07/13 04:47:53;;;;;;;11.60;11.00;;;24.20;99.50;;;;;;3532054;40;20463;-62
2021/07/13 04:50:22;;;;;;;11.50;10.90;;;24.20;99.50;;;;;;3531218;40;20486;-62
2021/07/13 04:52:51;;;;;;;11.70;10.97;;;24.20;99.50;;;;;;3532282;40;21264;-62
2021/07/13 04:55:23;;;;;;;11.90;11.30;;;24.20;99.50;;;;;;3534251;40;20470;-63
2021/07/13 04:57:55;;;;;;;11.70;11.10;;;24.20;99.50;;;;;;3522951;40;20862;-62
2021/07/13 05:00:23;;;;;;;12.03;11.27;;;24.20;99.50;;;;;;3530490;40;21269;-62
2021/07/13 05:02:50;;;;;;;11.50;11.00;;;24.20;99.50;;;;;;3528676;40;20889;-62
2021/07/13 05:05:20;;;;;;;11.93;11.33;;;24.20;99.50;;;;;;3520513;40;20472;-62
2021/07/13 05:07:49;;;;;;;12.60;11.50;;;24.20;99.50;;;;;;3521565;40;20464;-62
2021/07/13 05:10:20;;;;;;;11.40;10.80;;;24.20;99.50;;;;;;3520127;40;20463;-62
2021/07/13 05:12:48;;;;;;;11.40;10.80;;;24.20;99.50;;;;;;3521957;40;20452;-62
2021/07/13 05:15:20;;;;;;;11.57;10.97;;;24.20;99.60;;;;;;3521693;40;20451;-63
2021/07/13 05:17:48;;;;;;;11.60;11.00;;;24.20;99.50;;;;;;3521112;40;20447;-62
2021/07/13 05:20:16;;;;;;;12.30;11.67;;;24.20;99.50;;;;;;3519560;40;20459;-62
2021/07/13 05:22:48;;;;;;;11.60;11.00;;;24.20;99.50;;;;;;3520729;40;20474;-62
2021/07/13 05:25:16;;;;;;;13.00;12.20;;;24.20;99.50;;;;;;3519410;40;20460;-62
2021/07/13 05:27:44;;;;;;;11.47;10.87;;;24.20;99.50;;;;;;3518353;40;20691;-62
2021/07/13 05:30:13;;;;;;;10.13;9.53;;;24.20;99.60;;;;;;3511757;40;20593;-63
2021/07/13 05:32:42;;;;;;;10.17;9.67;;;24.20;99.90;;;;;;3518587;40;20466;-62
2021/07/13 05:35:10;;;;;;;8.60;8.20;;;24.10;99.90;;;;;;3518293;40;20888;-63
2021/07/13 05:37:38;;;;;;;9.50;8.80;;;24.00;99.90;;;;;;3519674;40;20875;-62
2021/07/13 05:40:08;;;;;;;9.33;8.80;;;24.00;99.90;;;;;;3518078;40;21094;-63
2021/07/13 05:42:36;;;;;;;8.73;8.33;;;23.90;99.90;;;;;;3518628;40;20486;-62
2021/07/13 05:45:06;;;;;;;9.93;9.47;;;23.90;99.90;;;;;;3516847;40;20470;-63
2021/07/13 05:47:34;;;;;;;9.70;9.20;;;23.80;99.90;;;;;;3516351;40;20452;-62
2021/07/13 05:50:05;;;;;;;9.00;8.60;;;23.80;99.90;;;;;;3515140;40;20501;-62
2021/07/13 05:52:33;;;;;;;8.53;8.10;;;23.60;99.90;;;;;;3514230;40;20550;-63
2021/07/13 05:55:04;;;;;;;8.57;8.10;;;23.50;99.90;;;;;;3518631;40;20489;-62
2021/07/13 05:57:31;;;;;;;9.60;8.90;;;23.50;99.90;;;;;;3525018;40;20469;-62
2021/07/13 06:00:00;;;;;;;10.57;9.77;;;23.60;99.90;;;;;;3522413;40;20455;-62
2021/07/13 06:02:28;;;;;;;9.20;8.60;;;23.60;99.90;;;;;;3522030;40;20900;-62
2021/07/13 06:04:57;;;;;;;8.40;8.00;;;23.60;99.90;;;;;;3523012;40;20511;-62
2021/07/13 06:07:25;;;;;;;8.50;8.10;;;23.70;99.90;;;;;;3520874;40;20486;-62
2021/07/13 06:09:56;;;;;;;9.50;8.90;;;23.60;99.90;;;;;;3522254;40;20502;-62
2021/07/13 06:12:24;;;;;;;8.73;8.23;;;23.60;99.90;;;;;;3521862;40;20463;-62
2021/07/13 06:14:51;;;;;;;8.87;8.47;;;23.60;99.90;;;;;;3522604;40;20467;-62
2021/07/13 06:17:19;;;;;;;10.00;9.50;;;23.70;99.90;;;;;;3522996;40;20507;-62
2021/07/13 06:19:47;;;;;;;9.10;8.60;;;23.70;99.90;;;;;;3521657;40;20546;-62
2021/07/13 06:22:17;;;;;;;8.93;8.50;;;23.70;99.90;;;;;;3523355;40;21177;-62
2021/07/13 06:24:55;;;;;;;9.67;9.07;;;23.70;99.90;;;;;;3521859;40;20463;-62
2021/07/13 06:27:25;;;;;;;9.00;8.57;;;23.70;99.90;;;;;;3523647;40;21167;-62
2021/07/13 06:29:54;;;;;;;9.07;8.73;;;23.70;99.90;;;;;;3522918;40;20459;-62
2021/07/13 06:32:22;;;;;;;9.43;8.93;;;23.70;99.90;;;;;;3522421;40;20553;-63
2021/07/13 06:34:50;;;;;;;9.60;9.00;;;23.70;99.90;;;;;;3517905;40;20490;-62
2021/07/13 06:37:18;;;;;;;9.00;8.60;;;23.70;99.90;;;;;;3520629;40;20463;-61
2021/07/13 06:39:48;;;;;;;9.40;8.83;;;23.70;99.90;;;;;;3516133;40;21200;-62
2021/07/13 06:42:15;;;;;;;9.10;8.70;;;23.60;99.90;;;;;;3518258;40;20487;-62
2021/07/13 06:44:43;;;;;;;9.53;9.13;;;23.70;99.90;;;;;;3514973;40;20490;-63
2021/07/13 06:47:11;;;;;;;9.13;8.53;;;23.70;99.90;;;;;;3521830;40;21237;-62
2021/07/13 06:49:40;;;;;;;9.33;8.93;;;23.70;99.90;;;;;;3521320;40;20561;-62
2021/07/13 06:52:11;;;;;;;9.50;9.00;;;23.60;99.90;;;;;;3522025;40;20458;-62
2021/07/13 06:54:39;;;;;;;9.53;8.93;;;23.60;99.90;;;;;;3512573;40;20643;-62
2021/07/13 06:57:08;;;;;;;9.83;9.23;;;23.60;99.90;;;;;;3520573;40;20471;-63
2021/07/13 06:59:36;;;;;;;9.23;8.80;;;23.60;99.90;;;;;;3516629;40;20475;-62
2021/07/13 07:02:06;;;;;;;9.50;8.80;;;23.60;99.90;;;;;;3518295;40;20474;-63
2021/07/13 07:04:33;;;;;;;8.67;8.30;;;23.70;99.90;;;;;;3518256;40;20543;-63
2021/07/13 07:07:01;;;;;;;8.73;8.33;;;23.70;99.90;;;;;;3512187;40;20521;-62
2021/07/13 07:09:29;;;;;;;9.50;8.70;;;23.70;99.90;;;;;;3519942;40;21067;-62
2021/07/13 07:11:56;;;;;;;9.37;8.77;;;23.80;99.90;;;;;;3517714;40;20470;-63
2021/07/13 07:14:30;;;;;;;9.20;8.30;;;23.80;99.90;;;;;;3519465;40;20466;-63
2021/07/13 07:16:57;;;;;;;9.47;8.87;;;23.80;99.90;;;;;;3511855;40;20543;-63
2021/07/13 07:19:25;;;;;;;26.97;9.90;;;23.60;99.90;;;;;;3503727;40;20786;-62
2021/07/13 07:21:57;;;;;;;9.40;8.50;;;23.50;99.90;;;;;;3515127;40;20491;-62
2021/07/13 07:24:25;;;;;;;11.77;9.40;;;23.30;99.90;;;;;;3518049;40;20463;-62
2021/07/13 07:26:55;;;;;;;10.57;9.77;;;23.20;99.90;;;;;;3519343;40;20466;-63
2021/07/13 07:29:23;;;;;;;9.67;9.17;;;23.30;99.90;;;;;;3513901;40;20529;-63
2021/07/13 07:31:57;;;;;;;12.07;9.87;;;23.40;99.90;;;;;;3511675;40;21035;-63
2021/07/13 07:34:26;;;;;;;9.60;8.90;;;23.30;99.90;;;;;;3509734;40;20846;-62
2021/07/13 07:36:53;;;;;;;10.40;9.60;;;23.20;99.90;;;;;;3512159;40;20499;-64
2021/07/13 07:39:23;;;;;;;9.93;9.33;;;23.20;99.90;;;;;;3526731;40;20462;-64
2021/07/13 07:41:52;;;;;;;10.07;9.37;;;23.30;99.90;;;;;;3529896;40;20453;-64
2021/07/13 07:44:23;;;;;;;9.77;9.10;;;23.40;99.90;;;;;;3529048;40;20481;-64
2021/07/13 07:46:55;;;;;;;10.73;9.90;;;23.50;99.90;;;;;;3517281;40;20506;-64
2021/07/13 07:49:24;;;;;;;10.40;9.70;;;23.60;99.90;;;;;;3518110;40;20470;-64
2021/07/13 07:51:53;;;;;;;10.87;9.80;;;23.70;99.90;;;;;;3517109;40;20477;-62
2021/07/13 07:54:20;;;;;;;9.93;9.43;;;23.80;99.90;;;;;;3515316;40;20459;-63
2021/07/13 07:56:49;;;;;;;10.57;9.67;;;23.80;99.90;;;;;;3519546;40;20463;-63
2021/07/13 07:59:20;;;;;;;9.43;8.87;;;23.90;99.90;;;;;;3520779;40;20729;-64
2021/07/13 08:01:48;;;;;;;10.63;9.97;;;23.90;99.90;;;;;;3520248;40;20498;-64
2021/07/13 08:04:20;;;;;;;9.43;8.80;;;23.90;99.90;;;;;;3520690;40;21165;-64
2021/07/13 08:06:47;;;;;;;9.47;8.87;;;24.00;99.90;;;;;;3509775;40;20499;-64
2021/07/13 08:09:15;;;;;;;10.57;9.80;;;24.00;99.90;;;;;;3514492;40;20462;-64
2021/07/13 08:11:43;;;;;;;9.50;8.90;;;24.00;99.90;;;;;;3517985;40;20941;-63
2021/07/13 08:14:11;;;;;;;10.23;9.63;;;24.00;99.90;;;;;;3519245;40;20457;-64
2021/07/13 08:16:41;;;;;;;9.67;9.07;;;24.00;99.90;;;;;;3518207;40;20473;-64
2021/07/13 08:19:09;;;;;;;9.00;8.50;;;24.00;99.90;;;;;;3516495;40;21120;-64
2021/07/13 08:21:38;;;;;;;9.67;8.93;;;24.00;99.90;;;;;;3513232;40;20565;-61
2021/07/13 08:24:08;;;;;;;10.10;9.50;;;24.00;99.90;;;;;;3517618;40;20480;-64
2021/07/13 08:26:39;;;;;;;10.07;9.47;;;24.00;99.90;;;;;;3520348;40;20483;-63
2021/07/13 08:29:07;;;;;;;8.90;8.50;;;24.10;99.90;;;;;;3519344;40;20478;-63
2021/07/13 08:31:35;;;;;;;9.60;9.10;;;24.10;99.90;;;;;;3516076;40;20471;-63
2021/07/13 08:34:03;;;;;;;9.87;9.37;;;24.10;99.90;;;;;;3520848;40;20477;-63
2021/07/13 08:36:31;;;;;;;10.80;10.20;;;24.10;99.90;;;;;;3518501;40;21154;-62
2021/07/13 08:39:01;;;;;;;10.67;10.03;;;24.10;99.90;;;;;;3517710;40;20473;-62
2021/07/13 08:41:30;;;;;;;10.83;9.97;;;24.10;99.90;;;;;;3519673;40;20455;-62
2021/07/13 08:44:01;;;;;;;9.90;9.20;;;24.10;99.90;;;;;;3519356;40;20763;-61
2021/07/13 08:46:30;;;;;;;9.10;8.70;;;24.10;99.90;;;;;;3519598;40;20518;-62
2021/07/13 08:49:04;;;;;;;9.47;8.93;;;24.20;99.90;;;;;;3511040;40;20584;-61
2021/07/13 08:51:33;;;;;;;9.17;8.67;;;24.10;99.90;;;;;;3520727;40;20746;-62
2021/07/13 08:54:04;;;;;;;10.10;9.50;;;24.20;99.90;;;;;;3517805;40;20467;-62
2021/07/13 08:56:34;;;;;;;10.43;9.87;;;24.20;99.90;;;;;;3514451;40;20458;-61
2021/07/13 08:59:03;;;;;;;10.43;9.83;;;24.20;99.90;;;;;;3517097;40;21052;-62
2021/07/13 09:01:33;;;;;;;9.60;9.00;;;24.20;99.90;;;;;;3510973;40;20486;-62
2021/07/13 09:04:09;;;;;;;9.50;9.00;;;24.20;99.90;;;;;;3509439;40;20582;-62
2021/07/13 09:06:55;;;;;;;9.33;8.87;;;24.20;99.90;;;;;;3507200;40;20470;-62
2021/07/13 09:09:28;;;;;;;9.50;9.10;;;24.20;99.90;;;;;;3517135;40;20493;-61
2021/07/13 09:12:16;;;;;;;8.50;8.20;;;24.20;99.90;;;;;;3515369;40;20499;-62
2021/07/13 09:14:57;;;;;;;9.40;8.90;;;24.20;99.90;;;;;;3518565;40;20466;-62
2021/07/13 09:17:37;;;;;;;9.50;9.10;;;24.20;99.90;;;;;;3518027;40;20486;-62
2021/07/13 09:20:10;;;;;;;9.37;8.97;;;24.20;99.90;;;;;;3512007;40;20514;-62
2021/07/13 09:22:39;;;;;;;9.43;8.93;;;24.20;99.90;;;;;;3515954;40;20480;-62
2021/07/13 09:25:32;;;;;;;9.50;9.10;;;24.20;99.90;;;;;;3511988;40;21272;-62
2021/07/13 09:28:11;;;;;;;10.13;9.50;;;24.20;99.90;;;;;;3517827;40;20466;-62
2021/07/13 09:30:42;;;;;;;9.50;9.10;;;24.20;99.90;;;;;;3517355;40;20478;-63
2021/07/13 09:33:21;;;;;;;9.00;8.60;;;24.20;99.90;;;;;;3518715;40;20485;-62
2021/07/13 09:36:08;;;;;;;9.27;8.80;;;24.20;99.90;;;;;;3519926;40;20716;-61
2021/07/13 09:38:40;;;;;;;9.63;9.20;;;24.20;99.90;;;;;;3515759;40;20502;-62
2021/07/13 09:41:15;;;;;;;9.87;9.37;;;24.20;99.90;;;;;;3517003;40;20479;-62
2021/07/13 09:43:59;;;;;;;9.10;8.50;;;24.20;99.90;;;;;;3517112;40;20470;-62
2021/07/13 09:46:30;;;;;;;8.80;8.40;;;24.20;99.90;;;;;;3515056;40;20479;-62
2021/07/13 09:49:14;;;;;;;8.97;8.57;;;24.20;99.90;;;;;;3518246;40;20917;-62
2021/07/13 09:51:43;;;;;;;9.00;8.60;;;24.20;99.90;;;;;;3522000;40;20987;-62
2021/07/13 09:54:33;;;;;;;9.23;8.83;;;24.20;99.90;;;;;;3520974;40;20475;-63
2021/07/13 09:57:07;;;;;;;9.93;9.43;;;24.20;99.90;;;;;;3521549;40;20462;-62
2021/07/13 09:59:35;;;;;;;10.20;9.70;;;24.20;99.90;;;;;;3519543;40;20471;-62
2021/07/13 10:02:08;;;;;;;10.77;10.17;;;24.20;99.90;;;;;;3517829;40;20989;-61
2021/07/13 10:04:41;;;;;;;10.30;9.80;;;24.20;99.90;;;;;;3516238;40;20497;-62
2021/07/13 10:07:12;;;;;;;11.27;10.30;;;24.20;99.90;;;;;;3518137;40;20557;-62
2021/07/13 10:09:43;;;;;;;11.30;10.60;;;24.20;99.90;;;;;;3516214;40;20494;-62
2021/07/13 10:12:15;;;;;;;11.60;11.10;;;24.20;99.90;;;;;;3520272;40;20713;-62
2021/07/13 10:14:44;;;;;;;11.23;10.63;;;24.20;99.90;;;;;;3516567;40;20960;-62
2021/07/13 10:17:13;;;;;;;10.37;9.87;;;24.20;99.90;;;;;;3517284;40;20499;-62
2021/07/13 10:19:46;;;;;;;11.07;10.53;;;24.20;99.90;;;;;;3517808;40;21381;-62
2021/07/13 10:22:15;;;;;;;10.67;10.13;;;24.20;99.90;;;;;;3519002;40;20506;-61
2021/07/13 10:24:45;;;;;;;11.30;10.70;;;24.20;99.90;;;;;;3506912;40;20498;-61
2021/07/13 10:27:29;;;;;;;11.03;10.43;;;24.20;99.90;;;;;;3517227;40;20479;-61
2021/07/13 10:30:00;;;;;;;11.37;10.70;;;24.20;99.90;;;;;;3509187;40;20466;-61
2021/07/13 10:32:36;;;;;;;11.60;10.90;;;24.20;99.90;;;;;;3518661;40;20502;-60
2021/07/13 10:35:22;;;;;;;10.33;9.80;;;24.20;99.90;;;;;;3516760;40;20486;-61
2021/07/13 10:37:54;;;;;;;9.27;8.87;;;24.20;99.90;;;;;;3519016;40;20461;-61
2021/07/13 10:40:38;;;;;;;11.73;9.30;;;24.20;99.90;;;;;;3517090;40;20474;-60
2021/07/13 10:43:34;;;;;;;10.30;9.80;;;24.20;99.90;;;;;;3513407;40;20530;-61
2021/07/13 10:46:10;;;;;;;9.57;9.07;;;24.20;99.90;;;;;;3517254;40;20493;-61
2021/07/13 10:48:41;;;;;;;9.87;9.07;;;24.20;99.90;;;;;;3518104;40;20465;-61
2021/07/13 10:51:10;;;;;;;10.87;10.10;;;24.20;99.90;;;;;;3516720;40;20466;-61
2021/07/13 10:53:42;;;;;;;9.20;8.77;;;24.20;99.90;;;;;;3517176;40;20463;-61
2021/07/13 10:56:13;;;;;;;9.30;8.90;;;24.20;99.90;;;;;;3517253;40;20474;-61
2021/07/13 10:58:54;;;;;;;10.00;9.50;;;24.20;99.90;;;;;;3505833;40;20467;-61
2021/07/13 11:01:29;;;;;;;8.87;8.37;;;24.20;99.90;;;;;;3516019;40;21598;-64
2021/07/13 11:04:14;;;;;;;9.60;9.10;;;24.20;99.90;;;;;;3517268;40;20458;-63
2021/07/13 11:09:29;;;;;;;9.30;8.80;;;24.20;99.90;;;;;;3526613;40;21080;-63
2021/07/13 11:12:22;;;;;;;8.27;7.97;;;24.20;99.90;;;;;;3529859;40;20458;-63
2021/07/13 11:14:56;;;;;;;8.07;7.70;;;24.20;99.90;;;;;;3531872;40;20493;-62
2021/07/13 11:17:27;;;;;;;8.43;7.93;;;24.20;99.90;;;;;;3531537;40;20529;-62
2021/07/13 11:20:09;;;;;;;7.60;7.30;;;24.20;99.90;;;;;;3529485;40;20478;-62
2021/07/13 11:22:40;;;;;;;7.37;6.97;;;24.20;99.90;;;;;;3531118;40;20482;-62
2021/07/13 11:25:22;;;;;;;7.80;7.47;;;24.20;99.90;;;;;;3531248;40;20482;-62
2021/07/13 11:28:05;;;;;;;7.30;7.00;;;24.20;99.90;;;;;;3531548;40;20830;-63
2021/07/13 11:30:36;;;;;;;7.33;7.03;;;24.20;99.90;;;;;;3522766;40;20458;-62
2021/07/13 11:33:09;;;;;;;8.03;7.53;;;24.20;99.90;;;;;;3522125;40;20508;-62
2021/07/13 11:35:52;;;;;;;6.80;6.50;;;24.20;99.90;;;;;;3532077;40;20486;-62
2021/07/13 11:38:27;;;;;;;6.33;6.13;;;24.20;99.90;;;;;;3534180;40;20472;-62
2021/07/13 11:41:10;;;;;;;6.83;6.40;;;24.20;99.90;;;;;;3521044;40;20478;-62
2021/07/13 11:43:37;;;;;;;6.90;6.50;;;24.20;99.90;;;;;;3512662;40;20992;-62
2021/07/13 11:46:17;;;;;;;7.27;6.97;;;24.20;99.90;;;;;;3518615;40;20501;-62
2021/07/13 11:48:55;;;;;;;6.70;6.40;;;24.20;99.90;;;;;;3527894;40;20473;-62
2021/07/13 11:51:28;;;;;;;6.27;6.07;;;24.20;99.90;;;;;;3529277;40;20980;-62
2021/07/13 11:54:01;;;;;;;6.20;6.00;;;24.20;99.90;;;;;;3531618;40;20531;-62
2021/07/13 11:56:29;;;;;;;6.17;5.97;;;24.20;99.90;;;;;;3528849;40;20516;-62
2021/07/13 11:58:58;;;;;;;6.33;6.13;;;24.20;99.90;;;;;;3529403;40;20466;-62
2021/07/13 12:01:30;;;;;;;6.27;5.97;;;24.20;99.90;;;;;;3528835;40;20458;-62
2021/07/13 12:04:05;;;;;;;6.33;6.13;;;24.20;99.90;;;;;;3531494;40;20713;-62
2021/07/13 12:06:34;;;;;;;6.80;6.60;;;24.20;99.90;;;;;;3530093;40;20832;-62
2021/07/13 12:09:04;;;;;;;6.13;5.97;;;24.20;99.90;;;;;;3529939;40;20458;-62
2021/07/13 12:11:33;;;;;;;6.40;5.90;;;24.20;99.90;;;;;;3530650;40;20481;-62
2021/07/13 12:14:04;;;;;;;6.50;6.30;;;24.20;99.90;;;;;;3530426;40;20485;-62
2021/07/13 12:16:35;;;;;;;6.20;6.00;;;24.20;99.90;;;;;;3519218;40;20513;-63
2021/07/13 12:19:05;;;;;;;6.40;6.20;;;24.20;99.90;;;;;;3526604;40;20519;-62
2021/07/13 12:21:34;;;;;;;6.07;5.87;;;24.20;99.90;;;;;;3511111;40;20500;-62
2021/07/13 12:24:12;;;;;;;6.30;6.10;;;24.20;99.90;;;;;;3515641;40;20472;-62
2021/07/13 12:26:43;;;;;;;5.70;5.57;;;24.20;99.90;;;;;;3509811;40;21176;-62
2021/07/13 12:29:14;;;;;;;5.80;5.60;;;24.20;99.90;;;;;;3510308;40;20474;-62
2021/07/13 12:32:01;;;;;;;5.97;5.80;;;24.20;99.90;;;;;;3498292;40;20487;-64
2021/07/13 12:34:30;;;;;;;6.27;5.80;;;24.20;99.90;;;;;;3506293;40;20483;-61
2021/07/13 12:37:22;;;;;;;6.57;6.37;;;24.20;99.90;;;;;;3510385;40;20530;-62
2021/07/13 12:39:52;;;;;;;6.53;6.33;;;24.20;99.90;;;;;;3503941;40;20769;-62
2021/07/13 12:42:23;;;;;;;6.90;6.13;;;24.10;99.90;;;;;;3508182;40;20487;-62
2021/07/13 12:44:52;;;;;;;6.40;6.20;;;24.20;99.90;;;;;;3510006;40;20497;-61
2021/07/13 12:47:30;;;;;;;6.40;6.20;;;24.20;99.90;;;;;;3521387;40;20494;-62
2021/07/13 12:50:18;;;;;;;6.47;6.27;;;24.20;99.90;;;;;;3517518;40;20529;-62
2021/07/13 12:52:57;;;;;;;6.40;6.20;;;24.20;99.90;;;;;;3518937;40;20545;-62
2021/07/13 12:55:34;;;;;;;6.53;6.37;;;24.20;99.90;;;;;;3519460;40;20462;-62
2021/07/13 12:58:10;;;;;;;6.67;6.47;;;24.20;99.90;;;;;;3519449;40;20479;-62
2021/07/13 13:00:40;;;;;;;7.20;7.00;;;24.20;99.90;;;;;;3519163;40;20474;-62
2021/07/13 13:03:12;;;;;;;7.30;7.00;;;24.20;99.90;;;;;;3510004;40;20470;-62